Latest Weather Observations for Coondewanna

IDW60801

Issued at 7:33 pm WST Sunday 11 December 2016 (issued every 30 minutes, with the page automatically refreshed every 10 minutes)

About weather observations | Map of weather stations | Latest weather observations for WA | Other Formats
Station Details ID: 505051 Name: COONDEWANNA Lat: -22.96 Lon: 118.81 Height: 697.63 m
Data from the previous 72 hours. | See also: Recent months for locations in Western Australia
Date/Time
WST
Temp
°C
App
Temp
°C
Dew
Point
°C
Rel
Hum
%
Delta-T
°C
Wind Press
QNH
hPa
Press
MSL
hPa
Rain since
9am
mm
Dir  Spd
km/h
Gust
km/h
Spd
kts
Gust
kts
11/07:30pm 22.5 22.2 20.4 88 1.4 SW 22 28 12 15 1013.9 1007.7 3.8
11/07:00pm 23.1 23.8 20.4 85 1.8 SW 17 24 9 13 1013.8 1007.6 1.0
11/06:30pm 23.7 22.0 19.8 79 2.6 SW 28 35 15 19 1011.9 1005.7 0.0
11/06:13pm 26.4 24.1 17.7 58 5.6 SW 26 50 14 27 1011.2 1005.0 0.0
11/06:10pm 27.6 26.4 17.5 54 6.5 WSW 20 50 11 27 1011.1 1004.9 0.0
11/06:00pm 31.6 30.6 14.7 36 10.7 NNW 13 20 7 11 1010.2 1004.0 0.0
11/05:30pm 32.0 29.3 14.6 34 11.0 N 22 33 12 18 1009.5 1003.3 0.0
11/05:00pm 32.6 28.0 14.7 34 11.3 N 32 46 17 25 1009.5 1003.3 0.0
11/04:40pm 34.6 31.7 14.0 29 13.0 N 22 50 12 27 1009.1 1002.8 0.0
11/04:30pm 35.4 33.3 12.4 25 14.2 N 15 26 8 14 1009.1 1002.8 0.0
11/04:00pm 36.0 33.1 12.3 24 14.7 NNE 19 30 10 16 1008.9 1002.7 0.0
11/03:30pm 36.0 34.3 12.3 24 14.6 NE 13 20 7 11 1009.4 1003.1 0.0
11/03:00pm 36.6 34.6 12.8 24 14.9 NNE 15 30 8 16 1009.9 1003.7 0.0
11/02:30pm 35.9 33.4 12.2 24 14.6 NNE 17 30 9 16 1010.4 1004.2 0.0
11/02:00pm 36.2 33.5 13.0 24 14.5 NNE 19 33 10 18 1011.2 1005.0 0.0
11/01:30pm 35.0 32.2 12.6 26 13.8 NE 19 30 10 16 1011.7 1005.5 0.0
11/01:00pm 36.1 34.8 13.6 26 14.2 NE 13 20 7 11 1012.2 1006.0 0.0
11/12:30pm 35.4 31.9 13.5 26 13.7 ENE 24 37 13 20 1012.6 1006.4 0.0
11/12:00pm 35.3 32.8 14.0 28 13.4 ENE 20 32 11 17 1013.0 1006.8 0.0
11/11:30am 34.8 32.1 13.6 28 13.3 NNE 20 33 11 18 1013.2 1007.0 0.0
11/11:00am 35.1 33.1 13.9 28 13.4 NNE 17 28 9 15 1013.7 1007.5 0.0
11/10:30am 33.6 31.3 14.1 30 12.3 NE 19 28 10 15 1014.1 1007.9 0.0
11/10:00am 33.3 32.2 15.3 34 11.5 NE 15 24 8 13 1014.4 1008.2 0.0
11/09:30am 32.6 32.3 16.4 37 10.5 NNE 13 26 7 14 1014.5 1008.3 0.0
11/09:00am 32.2 32.1 16.9 40 10.0 NNW 13 22 7 12 1014.7 1008.5 0.0
11/08:30am 30.8 30.2 17.5 45 8.7 NNW 17 20 9 11 1014.8 1008.7 0.0
11/08:00am 29.9 30.4 18.3 49 7.6 NNW 13 19 7 10 1014.8 1008.7 0.0
11/07:30am 28.8 28.5 18.3 53 6.9 N 17 22 9 12 1014.9 1008.8 0.0
11/07:00am 28.1 28.7 18.5 56 6.3 NNW 13 17 7 9 1014.8 1008.7 0.0
11/06:30am 27.2 28.4 19.0 61 5.4 NNW 11 15 6 8 1014.6 1008.4 0.0
11/06:00am 26.2 27.5 19.3 65 4.6 N 11 17 6 9 1014.4 1008.2 0.0
11/05:30am 25.2 26.8 19.1 69 4.0 NNW 9 11 5 6 1014.3 1008.1 0.0
11/05:00am 25.2 26.6 18.6 67 4.3 NNW 9 13 5 7 1014.0 1007.8 0.0
11/04:30am 25.6 26.9 18.5 65 4.6 NW 9 17 5 9 1013.9 1007.7 0.0
11/04:00am 25.9 27.8 18.6 64 4.8 N 6 7 3 4 1013.8 1007.6 0.0
11/03:30am 26.8 27.7 18.4 60 5.5 N 11 15 6 8 1013.8 1007.6 0.0
11/03:00am 27.3 27.0 18.3 58 5.9 N 17 24 9 13 1013.7 1007.5 0.0
11/02:30am 27.3 27.1 18.6 59 5.7 N 17 24 9 13 1013.7 1007.5 0.0
11/02:00am 27.5 27.3 18.5 58 5.9 N 17 26 9 14 1013.7 1007.5 0.0
11/01:30am 27.6 28.3 18.9 59 5.7 NNE 13 19 7 10 1013.8 1007.6 0.0
11/01:00am 28.1 29.0 18.5 56 6.3 N 11 19 6 10 1013.8 1007.6 0.0
11/12:30am 28.0 28.8 18.1 55 6.5 NNE 11 17 6 9 1014.0 1007.8 0.0
11/12:00am 28.1 27.5 17.6 53 6.8 NE 17 26 9 14 1014.6 1008.4 0.0
 
Date/Time
WST
Temp
°C
App
Temp
°C
Dew
Point
°C
Rel
Hum
%
Delta-T
°C
Wind Press
QNH
hPa
Press
MSL
hPa
Rain since
9am
mm
Dir  Spd
km/h
Gust
km/h
Spd
kts
Gust
kts
10/11:30pm 29.8 28.4 15.5 42 9.1 NE 17 30 9 16 1014.6 1008.4 0.0
10/11:00pm 29.2 30.3 16.7 46 8.0 NNE 6 9 3 5 1014.0 1007.8 0.0
10/10:30pm 29.2 32.1 18.3 51 7.2 CALM 0 0 0 0 1014.1 1007.9 0.0
10/10:00pm 29.5 32.6 18.6 52 7.2 CALM 0 0 0 0 1014.2 1008.0 0.0
10/09:30pm 29.8 32.7 18.3 50 7.6 CALM 0 0 0 0 1014.1 1007.9 0.0
10/09:00pm 30.0 32.6 17.5 47 8.2 CALM 0 0 0 0 1014.1 1007.9 0.0
10/08:30pm 31.7 34.0 16.8 40 9.7 CALM 0 0 0 0 1013.8 1007.6 0.0
10/08:00pm 32.0 33.1 16.7 40 9.9 NNE 6 6 3 3 1013.5 1007.4 0.0
10/07:30pm 32.6 32.0 11.7 28 12.6 NNE 6 7 3 4 1013.2 1007.0 0.0
10/07:00pm 33.3 32.9 12.3 28 12.9 NNE 6 7 3 4 1012.8 1006.6 0.0
10/06:30pm 34.1 32.5 8.7 21 14.8 NNE 7 9 4 5 1012.5 1006.3 0.0
10/06:00pm 34.5 32.2 7.5 19 15.4 NNE 9 13 5 7 1012.3 1006.1 0.0
10/05:30pm 35.0 32.8 7.9 19 15.6 N 9 13 5 7 1012.1 1005.8 0.0
10/05:00pm 35.3 32.6 7.4 18 16.0 NNE 11 17 6 9 1012.1 1005.8 0.0
10/04:30pm 35.3 33.9 7.4 18 16.0 ESE 4 9 2 5 1012.1 1005.8 0.0
10/04:00pm 35.5 32.9 7.6 18 16.1 ESE 11 17 6 9 1012.3 1006.1 0.0
10/03:30pm 35.5 33.2 7.6 18 16.0 SSE 9 17 5 9 1012.4 1006.2 0.0
10/03:00pm 36.4 34.1 7.4 17 16.7 ESE 9 26 5 14 1012.7 1006.5 0.0
10/02:30pm 35.9 34.1 7.9 18 16.2 E 7 13 4 7 1013.1 1006.9 0.0
10/02:00pm 36.0 32.5 8.7 19 16.0 SE 17 22 9 12 1013.4 1007.3 0.0
10/01:30pm 35.2 33.6 8.9 20 15.4 NNE 7 15 4 8 1013.9 1007.7 0.0
10/01:00pm 35.2 33.2 10.3 22 14.9 E 11 20 6 11 1014.2 1008.0 0.0
10/12:30pm 35.5 32.6 9.8 21 15.3 E 15 24 8 13 1014.5 1008.3 0.0
10/12:00pm 35.2 33.2 11.6 24 14.4 ENE 13 24 7 13 1014.9 1008.8 0.0
10/11:30am 34.2 31.6 10.7 24 14.1 ENE 15 33 8 18 1015.3 1009.1 0.0
10/11:00am 33.2 30.1 11.7 27 13.0 ENE 19 35 10 19 1015.7 1009.5 0.0
10/10:30am 32.7 29.8 12.9 30 12.2 E 20 28 11 15 1015.9 1009.7 0.0
10/10:00am 32.5 29.9 13.2 31 11.9 E 19 26 10 14 1016.2 1010.1 0.0
10/09:30am 31.6 28.3 12.9 32 11.5 ENE 22 28 12 15 1016.4 1010.3 0.0
10/09:00am 30.7 28.6 13.5 35 10.6 ENE 17 26 9 14 1016.7 1010.5 -
10/08:30am 30.1 27.6 13.4 36 10.3 E 19 33 10 18 1016.7 1010.5 -
10/08:00am 30.0 28.7 13.7 37 10.0 E 13 20 7 11 1016.5 1010.4 -
10/07:30am 28.0 29.5 18.1 55 6.5 SE 7 9 4 5 1016.4 1010.3 -
10/07:00am 25.0 27.5 20.3 75 3.1 NW 7 11 4 6 1016.5 1010.4 -
10/06:30am 23.0 27.2 20.9 88 1.4 CALM 0 0 0 0 1016.2 1010.1 -
10/06:00am 22.4 25.6 21.2 93 0.8 NNE 6 7 3 4 1016.1 1010.0 -
10/05:30am 21.9 24.9 20.9 94 0.7 NNE 6 7 3 4 1015.9 1009.7 -
10/05:00am 21.8 24.9 21.1 96 0.5 NNE 6 7 3 4 1015.7 1009.5 -
10/04:30am 21.8 25.8 20.6 93 0.8 CALM 0 0 0 0 1015.4 1009.2 -
10/04:00am 21.7 25.9 20.9 95 0.5 CALM 0 0 0 0 1015.3 1009.1 -
10/03:30am 21.9 26.0 20.7 93 0.8 CALM 0 0 0 0 1014.9 1008.8 -
10/03:00am 21.9 26.1 20.9 94 0.7 CALM 0 0 0 0 1014.8 1008.7 -
10/02:30am 21.8 26.0 21.0 95 0.5 CALM 0 6 0 3 1014.8 1008.7 -
10/02:00am 22.0 26.3 21.2 95 0.5 CALM 0 0 0 0 1014.9 1008.8 -
10/01:30am 21.8 25.5 20.8 94 0.7 NNE 2 6 1 3 1015.3 1009.1 -
10/01:00am 22.1 25.0 20.7 92 0.9 NNE 6 11 3 6 1015.3 1009.1 -
10/12:30am 22.0 26.1 20.8 93 0.8 CALM 0 0 0 0 1015.6 1009.4 -
10/12:00am 22.1 26.1 20.6 91 1.0 CALM 0 0 0 0 1015.8 1009.6 -
 
Date/Time
WST
Temp
°C
App
Temp
°C
Dew
Point
°C
Rel
Hum
%
Delta-T
°C
Wind Press
QNH
hPa
Press
MSL
hPa
Rain since
9am
mm
Dir  Spd
km/h
Gust
km/h
Spd
kts
Gust
kts
09/11:30pm 22.4 26.3 20.3 88 1.4 CALM 0 0 0 0 1016.2 1010.1 4.4
09/11:00pm 22.4 26.4 20.5 89 1.3 CALM 0 0 0 0 1016.5 1010.4 4.4
09/10:30pm 22.4 26.2 20.9 91 1.0 NNE 2 6 1 3 1016.9 1010.7 4.4
09/10:00pm 22.5 26.6 20.8 90 1.1 CALM 0 0 0 0 1016.8 1010.6 4.4
09/09:30pm 22.4 25.5 19.4 83 2.0 NNE 2 7 1 4 1016.9 1010.7 4.4
09/09:00pm 22.1 25.5 20.2 89 1.3 NNE 2 7 1 4 1016.8 1010.6 4.4
09/08:30pm 22.0 24.8 20.5 91 1.0 NNE 6 9 3 5 1016.5 1010.4 4.4
09/08:00pm 22.2 26.2 20.5 90 1.1 CALM 0 7 0 4 1016.4 1010.3 4.4
09/07:30pm 22.1 24.8 20.7 92 0.9 NNE 7 7 4 4 1016.1 1010.0 4.4
09/07:00pm 22.0 24.5 20.3 90 1.1 NNE 7 11 4 6 1016.2 1010.1 4.4
09/06:30pm 21.6 23.2 19.9 90 1.1 NNE 11 15 6 8 1016.2 1010.1 4.4
09/06:00pm 21.7 22.3 20.2 91 1.0 N 17 22 9 12 1016.1 1010.0 3.8
09/05:30pm 22.3 23.8 20.6 90 1.1 NNW 13 17 7 9 1015.8 1009.6 3.2
09/05:00pm 23.3 25.0 21.0 87 1.5 NNW 13 17 7 9 1015.4 1009.2 2.0
09/04:30pm 24.0 26.2 20.3 80 2.5 W 9 11 5 6 1014.6 1008.4 1.8
09/04:00pm 24.5 26.1 20.8 80 2.5 SSW 13 19 7 10 1014.2 1008.0 1.6
09/03:30pm 24.3 24.2 20.8 81 2.4 S 22 28 12 15 1014.1 1007.9 1.4
09/03:00pm 24.3 23.8 20.0 77 2.9 S 22 30 12 16 1014.3 1008.1 1.0
09/02:30pm 26.6 26.9 19.7 66 4.6 SSW 17 22 9 12 1014.2 1008.0 0.8
09/02:00pm 26.8 26.9 19.2 63 5.0 S 17 24 9 13 1014.3 1008.1 0.8
09/01:30pm 28.1 25.9 18.8 57 6.1 ESE 28 39 15 21 1014.5 1008.3 0.8
09/01:00pm 28.6 25.6 17.8 52 7.0 ESE 30 37 16 20 1014.5 1008.3 0.8
09/12:30pm 27.3 26.9 20.1 64 4.8 SE 22 28 12 15 1014.7 1008.5 0.8
09/12:00pm 29.3 27.6 18.1 51 7.3 E 24 39 13 21 1014.7 1008.5 0.0
09/11:30am 29.8 28.7 17.3 47 8.1 E 19 28 10 15 1015.0 1008.9 0.0
09/11:00am 30.0 30.7 18.8 51 7.4 E 13 20 7 11 1015.3 1009.1 0.0
09/10:30am 28.9 28.7 17.7 50 7.3 E 15 24 8 13 1015.6 1009.4 0.0
09/10:00am 28.0 28.4 18.1 55 6.5 ESE 13 20 7 11 1015.7 1009.5 0.0
09/09:30am 27.4 27.2 18.4 58 5.9 E 17 24 9 13 1016.1 1010.0 0.0
09/09:00am 26.5 26.5 18.1 60 5.5 ESE 15 20 8 11 1016.2 1010.1 8.6
09/08:30am 26.0 27.2 17.4 59 5.5 ESE 7 13 4 7 1016.2 1010.1 8.6
09/08:00am 24.6 26.7 17.3 64 4.7 E 2 6 1 3 1016.2 1010.1 8.6
09/07:30am 23.9 25.4 18.1 70 3.7 E 7 13 4 7 1015.9 1009.7 8.6
09/07:00am 23.3 25.0 18.6 75 3.0 ESE 7 11 4 6 1015.8 1009.6 8.6
09/06:30am 22.8 24.3 18.1 75 3.0 ESE 7 11 4 6 1015.8 1009.6 8.6
09/06:00am 22.3 22.0 18.3 78 2.6 ESE 17 22 9 12 1015.4 1009.2 8.6
09/05:30am 22.6 23.0 18.2 76 2.8 ESE 13 17 7 9 1015.2 1009.0 8.6
09/05:00am 22.5 23.1 17.8 75 3.0 SE 11 15 6 8 1014.5 1008.3 8.6
09/04:30am 22.0 23.3 18.4 80 2.3 SW 9 15 5 8 1014.0 1007.8 8.6
09/04:00am 22.0 23.7 18.4 80 2.3 WSW 7 9 4 5 1013.8 1007.6 8.6
09/03:30am 21.9 23.1 18.3 80 2.3 SSW 9 13 5 7 1013.8 1007.6 8.6
09/03:00am 22.0 23.6 18.2 79 2.4 N 7 9 4 5 1013.5 1007.4 8.6
09/02:30am 22.2 24.3 18.0 77 2.7 N 4 9 2 5 1013.8 1007.6 8.6
09/02:00am 22.4 24.2 18.2 77 2.7 N 6 7 3 4 1013.9 1007.7 8.6
09/01:30am 22.7 23.6 16.7 69 3.8 NE 7 11 4 6 1014.0 1007.8 8.6
09/01:00am 22.5 23.5 16.8 70 3.6 N 7 11 4 6 1014.2 1008.0 8.6
09/12:30am 22.4 22.0 17.1 72 3.4 NNE 15 24 8 13 1014.3 1008.1 8.6
09/12:00am 22.4 22.1 17.3 73 3.2 NE 15 20 8 11 1014.4 1008.2 8.6
 
Date/Time
WST
Temp
°C
App
Temp
°C
Dew
Point
°C
Rel
Hum
%
Delta-T
°C
Wind Press
QNH
hPa
Press
MSL
hPa
Rain since
9am
mm
Dir  Spd
km/h
Gust
km/h
Spd
kts
Gust
kts
08/11:30pm 22.3 22.8 17.4 74 3.1 ENE 11 20 6 11 1014.8 1008.7 8.6
08/11:00pm 21.8 20.8 17.6 77 2.7 E 19 28 10 15 1015.3 1009.1 8.6
08/10:30pm 22.6 23.0 19.8 84 1.8 ENE 17 24 9 13 1015.8 1009.6 8.6
08/10:00pm 22.2 22.8 19.4 84 1.8 ENE 15 20 8 11 1016.2 1010.1 8.6
08/09:30pm 21.4 23.3 19.7 90 1.1 E 9 13 5 7 1016.4 1010.3 8.2
08/09:29pm 21.4 23.3 19.7 90 1.1 E 9 15 5 8 1016.4 1010.3 8.2
08/09:01pm 20.7 22.1 19.5 93 0.8 NNW 11 15 6 8 1016.8 1010.6 5.2
08/09:00pm 20.8 22.2 19.5 92 0.8 NNW 11 15 6 8 1016.8 1010.6 4.8
08/08:30pm 21.7 22.2 18.3 81 2.2 SSW 13 17 7 9 1015.9 1009.7 1.6
08/08:00pm 22.8 21.6 17.5 72 3.4 SSE 20 28 11 15 1015.9 1009.7 0.8

Other Formats:

Comma delimited format used in spreadsheet applications
http://www.bom.gov.au/fwo/IDW60801/IDW60801.99312.axf

JavaScript Object Notation format (JSON) in row-major order
http://www.bom.gov.au/fwo/IDW60801/IDW60801.99312.json